createdAt,value
2023-02-03T00:00:01.465Z,18.50
2023-02-03T00:02:29.333Z,17.20
2023-02-03T00:04:57.297Z,10.38
2023-02-03T00:07:25.432Z,11.48
2023-02-03T00:09:53.319Z,15.25
2023-02-03T00:12:21.190Z,11.35
2023-02-03T00:14:49.092Z,15.48
2023-02-03T00:17:17.207Z,12.85
2023-02-03T00:19:44.997Z,9.10
2023-02-03T00:22:13.418Z,18.58
2023-02-03T00:24:41.197Z,13.07
2023-02-03T00:27:09.006Z,11.43
2023-02-03T00:29:37.251Z,13.05
2023-02-03T00:32:05.383Z,11.18
2023-02-03T00:34:33.306Z,12.05
2023-02-03T00:37:02.834Z,11.73
2023-02-03T00:39:30.735Z,17.23
2023-02-03T00:41:58.510Z,11.75
2023-02-03T00:44:26.339Z,12.55
2023-02-03T00:46:54.094Z,6.03
2023-02-03T00:49:21.964Z,11.88
2023-02-03T00:51:51.597Z,13.18
2023-02-03T00:54:19.385Z,14.10
2023-02-03T00:56:47.339Z,6.53
2023-02-03T00:59:15.100Z,7.72
2023-02-03T01:01:43.187Z,13.00
2023-02-03T01:04:11.252Z,11.73
2023-02-03T01:06:41.136Z,11.68
2023-02-03T01:09:08.973Z,12.82
2023-02-03T01:11:36.799Z,10.77
2023-02-03T01:14:04.615Z,9.85
2023-02-03T01:16:36.376Z,11.52
2023-02-03T01:19:04.798Z,8.70
2023-02-03T01:21:32.675Z,9.00
2023-02-03T01:24:01.082Z,13.30
2023-02-03T01:26:29.366Z,7.78
2023-02-03T01:28:59.606Z,10.32
2023-02-03T01:31:30.667Z,8.43
2023-02-03T01:33:58.759Z,9.23
2023-02-03T01:36:30.864Z,7.72
2023-02-03T01:38:58.712Z,8.73
2023-02-03T01:41:29.630Z,9.82
2023-02-03T01:43:58.887Z,8.52
2023-02-03T01:46:36.972Z,9.55
2023-02-03T01:49:19.758Z,10.77
2023-02-03T01:51:48.905Z,12.88
2023-02-03T01:54:33.405Z,10.30
2023-02-03T01:57:07.668Z,9.27
2023-02-03T01:59:36.077Z,11.57
2023-02-03T02:02:05.429Z,10.00
2023-02-03T02:05:01.860Z,5.15
2023-02-03T02:07:31.658Z,6.30
2023-02-03T02:09:59.731Z,8.75
2023-02-03T02:12:27.567Z,9.48
2023-02-03T02:14:55.810Z,5.85
2023-02-03T02:18:05.699Z,8.80
2023-02-03T02:20:55.362Z,7.10
2023-02-03T02:23:23.209Z,7.80
2023-02-03T02:25:57.078Z,11.43
2023-02-03T02:28:43.948Z,8.05
2023-02-03T02:31:31.016Z,7.45
2023-02-03T02:34:38.765Z,13.70
2023-02-03T02:37:16.132Z,6.85
2023-02-03T02:40:04.142Z,7.28
2023-02-03T02:42:37.836Z,10.15
2023-02-03T02:45:16.277Z,5.63
2023-02-03T02:47:45.629Z,8.63
2023-02-03T02:50:23.135Z,8.77
2023-02-03T02:52:53.095Z,7.35
2023-02-03T02:55:28.772Z,7.57
2023-02-03T02:58:07.463Z,8.13
2023-02-03T03:03:15.450Z,10.80
2023-02-03T03:05:49.320Z,17.40
2023-02-03T03:08:28.968Z,4.82
2023-02-03T03:10:58.373Z,5.82
2023-02-03T03:13:31.641Z,7.85
2023-02-03T03:16:05.456Z,6.35
2023-02-03T03:18:38.862Z,8.10
2023-02-03T03:21:08.230Z,7.93
2023-02-03T03:23:40.048Z,10.35
2023-02-03T03:26:15.616Z,10.13
2023-02-03T03:29:15.823Z,11.27
2023-02-03T03:31:44.807Z,6.45
2023-02-03T03:34:14.526Z,6.75
2023-02-03T03:36:51.161Z,5.50
2023-02-03T03:39:29.290Z,9.57
2023-02-03T03:42:02.644Z,5.45
2023-02-03T03:44:51.437Z,8.95
2023-02-03T03:47:29.235Z,6.72
2023-02-03T03:49:59.801Z,3.90
2023-02-03T03:52:32.214Z,5.03
2023-02-03T03:55:03.177Z,3.80
2023-02-03T03:57:36.978Z,10.43
2023-02-03T04:00:07.803Z,6.07
2023-02-03T04:02:41.416Z,5.45
2023-02-03T04:05:11.295Z,7.75
2023-02-03T04:07:48.379Z,6.75
2023-02-03T04:10:32.549Z,6.25
2023-02-03T04:13:01.008Z,3.72
2023-02-03T04:15:29.110Z,8.50
2023-02-03T04:17:57.614Z,5.00
2023-02-03T04:20:26.165Z,6.40
2023-02-03T04:22:54.241Z,3.42
2023-02-03T04:25:22.409Z,8.43
2023-02-03T04:27:50.389Z,6.10
2023-02-03T04:30:18.787Z,6.18
2023-02-03T04:32:47.666Z,6.85
2023-02-03T04:35:15.676Z,10.00
2023-02-03T04:37:43.645Z,3.92
2023-02-03T04:40:12.185Z,6.60
2023-02-03T04:42:41.394Z,9.02
2023-02-03T04:45:11.515Z,5.07
2023-02-03T04:47:40.046Z,4.43
2023-02-03T04:50:08.448Z,8.68
2023-02-03T04:52:36.311Z,6.95
2023-02-03T04:55:04.384Z,5.47
2023-02-03T04:57:32.470Z,6.97
2023-02-03T05:00:00.338Z,7.13
2023-02-03T05:02:28.215Z,7.97
2023-02-03T05:04:56.073Z,4.25
2023-02-03T05:07:23.952Z,6.78
2023-02-03T05:09:51.923Z,4.03
2023-02-03T05:12:19.947Z,5.55
2023-02-03T05:14:49.879Z,5.40
2023-02-03T05:17:17.780Z,3.08
2023-02-03T05:19:45.725Z,5.57
2023-02-03T05:22:13.814Z,10.13
2023-02-03T05:24:41.672Z,5.70
2023-02-03T05:27:09.526Z,3.55
2023-02-03T05:29:37.636Z,5.07
2023-02-03T05:32:05.844Z,6.82
2023-02-03T05:34:33.948Z,8.80
2023-02-03T05:37:01.851Z,3.20
2023-02-03T05:39:29.680Z,8.35
2023-02-03T05:41:58.613Z,3.92
2023-02-03T05:44:27.942Z,8.32
2023-02-03T05:46:58.318Z,3.88
2023-02-03T05:49:26.499Z,12.63
2023-02-03T05:51:57.959Z,9.18
2023-02-03T05:54:25.949Z,11.48
2023-02-03T05:56:53.784Z,10.38
2023-02-03T05:59:21.650Z,6.65
2023-02-03T06:01:49.520Z,7.20
2023-02-03T06:04:17.775Z,7.68
2023-02-03T06:06:47.704Z,6.90
2023-02-03T06:09:15.766Z,6.68
2023-02-03T06:11:43.605Z,8.68
2023-02-03T06:14:11.597Z,8.30
2023-02-03T06:16:39.504Z,6.75
2023-02-03T06:19:07.502Z,8.07
2023-02-03T06:21:35.333Z,5.88
2023-02-03T06:24:03.573Z,5.00
2023-02-03T06:26:31.616Z,8.05
2023-02-03T06:28:59.480Z,7.07
2023-02-03T06:31:27.440Z,5.88
2023-02-03T06:33:57.298Z,6.07
2023-02-03T06:36:25.195Z,11.13
2023-02-03T06:38:53.055Z,9.45
2023-02-03T06:41:20.915Z,5.78
2023-02-03T06:43:48.800Z,6.43
2023-02-03T06:46:16.785Z,8.93
2023-02-03T06:48:44.603Z,7.57
2023-02-03T06:51:12.493Z,5.38
2023-02-03T06:53:40.399Z,5.28
2023-02-03T06:56:08.773Z,6.55
2023-02-03T06:58:36.759Z,6.75
2023-02-03T07:01:04.700Z,5.40
2023-02-03T07:03:32.564Z,5.90
2023-02-03T07:06:00.368Z,4.20
2023-02-03T07:08:28.352Z,7.70
2023-02-03T07:10:56.438Z,5.88
2023-02-03T07:13:24.442Z,5.63
2023-02-03T07:15:52.531Z,11.55
2023-02-03T07:18:45.612Z,7.57
2023-02-03T07:21:13.703Z,8.27
2023-02-03T07:23:42.091Z,9.20
2023-02-03T07:26:11.330Z,5.60
2023-02-03T07:28:39.336Z,4.32
2023-02-03T07:31:11.137Z,7.55
2023-02-03T07:33:39.893Z,8.10
2023-02-03T07:36:08.619Z,8.00
2023-02-03T07:38:38.166Z,4.25
2023-02-03T07:41:06.608Z,6.72
2023-02-03T07:43:34.753Z,6.60
2023-02-03T07:46:05.127Z,6.18
2023-02-03T07:48:33.626Z,9.65
2023-02-03T07:51:01.584Z,7.82
2023-02-03T07:53:29.874Z,6.90
2023-02-03T07:56:01.481Z,6.32
2023-02-03T07:58:29.639Z,5.22
2023-02-03T08:00:58.082Z,10.57
2023-02-03T08:03:25.982Z,7.80
2023-02-03T08:05:53.915Z,7.22
2023-02-03T08:08:21.779Z,4.22
2023-02-03T08:10:49.675Z,8.98
2023-02-03T08:13:17.671Z,8.50
2023-02-03T08:15:45.551Z,10.73
2023-02-03T08:18:13.387Z,7.07
2023-02-03T08:20:41.591Z,6.65
2023-02-03T08:23:09.438Z,6.95
2023-02-03T08:25:37.345Z,6.40
2023-02-03T08:28:05.478Z,6.57
2023-02-03T08:30:33.521Z,9.82
2023-02-03T08:33:01.500Z,8.18
2023-02-03T08:35:29.435Z,9.55
2023-02-03T08:37:57.272Z,9.82
2023-02-03T08:40:25.207Z,9.32
2023-02-03T08:42:53.122Z,7.18
2023-02-03T08:45:20.986Z,12.52
2023-02-03T08:47:49.224Z,12.38
2023-02-03T08:50:17.417Z,9.85
2023-02-03T08:52:45.342Z,6.82
2023-02-03T08:55:13.245Z,14.48
2023-02-03T08:57:42.135Z,5.18
2023-02-03T09:00:11.683Z,9.30
2023-02-03T09:02:39.514Z,6.00
2023-02-03T09:05:07.734Z,8.20
2023-02-03T09:07:35.745Z,10.15
2023-02-03T09:10:03.859Z,8.05
2023-02-03T09:12:31.795Z,8.48
2023-02-03T09:14:59.899Z,12.52
2023-02-03T09:17:28.135Z,6.95
2023-02-03T09:19:55.998Z,9.40
2023-02-03T09:22:23.965Z,11.07
2023-02-03T09:24:52.015Z,8.60
2023-02-03T09:27:19.945Z,10.93
2023-02-03T09:29:47.858Z,10.45
2023-02-03T09:32:16.052Z,4.80
2023-02-03T09:34:45.223Z,6.43
2023-02-03T09:37:13.170Z,5.22
2023-02-03T09:39:41.197Z,12.50
2023-02-03T09:42:26.806Z,8.63
2023-02-03T09:45:17.939Z,5.50
2023-02-03T09:47:45.867Z,10.52
2023-02-03T09:50:22.602Z,8.68
2023-02-03T09:52:51.824Z,3.08
2023-02-03T09:55:36.460Z,6.28
2023-02-03T09:58:06.423Z,5.82
2023-02-03T10:00:43.294Z,8.50
2023-02-03T10:03:34.590Z,9.13
2023-02-03T10:06:21.090Z,7.20
2023-02-03T10:09:13.934Z,5.75
2023-02-03T10:12:00.845Z,8.13
2023-02-03T10:14:54.205Z,7.70
2023-02-03T10:17:38.433Z,6.00
2023-02-03T10:20:14.694Z,7.25
2023-02-03T10:22:56.221Z,4.03
2023-02-03T10:25:36.170Z,6.22
2023-02-03T10:28:10.673Z,7.78
2023-02-03T10:30:45.694Z,7.90
2023-02-03T10:33:17.530Z,7.70
2023-02-03T10:36:16.502Z,8.38
2023-02-03T10:38:52.904Z,6.80
2023-02-03T10:41:22.226Z,6.90
2023-02-03T10:43:55.535Z,9.88
2023-02-03T10:46:37.608Z,8.00
2023-02-03T10:49:05.749Z,7.78
2023-02-03T10:51:48.974Z,9.20
2023-02-03T10:54:34.353Z,6.38
2023-02-03T10:57:06.433Z,5.80
2023-02-03T10:59:45.880Z,6.50
2023-02-03T11:02:30.268Z,5.22
2023-02-03T11:05:21.878Z,6.73
2023-02-03T11:07:49.847Z,5.18
2023-02-03T11:10:37.167Z,5.88
2023-02-03T11:13:21.372Z,7.30
2023-02-03T11:15:56.062Z,6.28
2023-02-03T11:18:52.258Z,5.85
2023-02-03T11:21:26.824Z,7.95
2023-02-03T11:24:24.175Z,7.10
2023-02-03T11:27:00.108Z,6.85
2023-02-03T11:29:32.086Z,7.85
2023-02-03T11:32:16.563Z,6.80
2023-02-03T11:34:57.878Z,9.07
2023-02-03T11:37:32.871Z,12.02
2023-02-03T11:40:12.641Z,6.57
2023-02-03T11:42:43.157Z,5.82
2023-02-03T11:45:17.733Z,11.00
2023-02-03T11:47:54.009Z,9.02
2023-02-03T11:50:38.516Z,11.07
2023-02-03T11:53:51.345Z,14.65
2023-02-03T11:56:32.759Z,13.35
2023-02-03T11:59:39.721Z,7.15
2023-02-03T12:02:34.468Z,5.15
2023-02-03T12:05:33.158Z,10.63
2023-02-03T12:08:19.604Z,7.90
2023-02-03T12:11:07.822Z,12.05
2023-02-03T12:14:28.779Z,8.52
2023-02-03T12:17:23.935Z,12.57
2023-02-03T12:20:25.970Z,22.20
2023-02-03T12:23:08.523Z,9.35
2023-02-03T12:25:39.226Z,9.40
2023-02-03T12:28:20.662Z,10.48
2023-02-03T12:31:02.760Z,10.23
2023-02-03T12:33:46.399Z,8.93
2023-02-03T12:36:42.508Z,9.95
2023-02-03T12:39:24.939Z,10.45
2023-02-03T12:42:07.668Z,11.93
2023-02-03T12:44:47.513Z,13.50
2023-02-03T12:47:45.377Z,9.05
2023-02-03T12:50:34.839Z,16.23
2023-02-03T12:53:15.136Z,13.35
2023-02-03T12:55:55.967Z,9.80
2023-02-03T12:58:36.883Z,12.60
2023-02-03T13:01:23.295Z,12.02
2023-02-03T13:04:01.721Z,7.78
2023-02-03T13:06:50.028Z,10.63
2023-02-03T13:09:37.354Z,13.60
2023-02-03T13:12:36.052Z,8.48
2023-02-03T13:15:37.645Z,11.73
2023-02-03T13:18:28.159Z,13.63
2023-02-03T13:20:57.103Z,17.05
2023-02-03T13:23:26.425Z,12.40
2023-02-03T13:26:00.397Z,13.80
2023-02-03T13:28:57.387Z,17.98
2023-02-03T13:31:42.037Z,12.48
2023-02-03T13:34:32.583Z,13.38
2023-02-03T13:37:19.292Z,13.45
2023-02-03T13:40:14.253Z,11.73
2023-02-03T13:42:53.839Z,15.88
2023-02-03T13:45:42.867Z,21.10
2023-02-03T13:48:27.034Z,18.05
2023-02-03T13:51:13.584Z,19.00
2023-02-03T13:53:43.905Z,12.40
2023-02-03T13:56:23.749Z,19.17
2023-02-03T13:59:07.311Z,12.05
2023-02-03T14:01:42.584Z,14.32
2023-02-03T14:04:31.914Z,23.40
2023-02-03T14:07:02.527Z,20.95
2023-02-03T14:09:31.775Z,20.33
2023-02-03T14:12:18.394Z,12.48
2023-02-03T14:15:04.074Z,21.05
2023-02-03T14:17:52.282Z,15.82
2023-02-03T14:20:31.520Z,13.48
2023-02-03T14:23:07.479Z,17.05
2023-02-03T14:25:42.855Z,19.30
2023-02-03T14:28:17.700Z,18.85
2023-02-03T14:34:14.934Z,18.35
2023-02-03T14:36:46.242Z,12.25
2023-02-03T14:39:20.252Z,13.40
2023-02-03T14:41:54.283Z,14.38
2023-02-03T14:44:30.587Z,12.00
2023-02-03T14:47:04.368Z,21.58
2023-02-03T14:49:53.718Z,21.35
2023-02-03T14:52:58.191Z,22.75
2023-02-03T14:55:35.590Z,22.27
2023-02-03T14:58:14.022Z,26.08
2023-02-03T15:00:42.821Z,16.67
2023-02-03T15:03:10.774Z,20.02
2023-02-03T15:05:47.377Z,19.20
2023-02-03T15:08:41.820Z,28.00
2023-02-03T15:11:44.288Z,15.50
2023-02-03T15:14:21.400Z,23.70
2023-02-03T15:16:56.480Z,21.08
2023-02-03T15:19:33.197Z,14.40
2023-02-03T15:22:02.033Z,20.45
2023-02-03T15:24:37.040Z,17.50
2023-02-03T15:27:04.932Z,18.13
2023-02-03T15:29:34.523Z,20.65
2023-02-03T15:32:14.239Z,13.05
2023-02-03T15:34:47.440Z,21.15
2023-02-03T15:37:39.464Z,21.67
2023-02-03T15:40:15.330Z,16.98
2023-02-03T15:42:51.805Z,25.17
2023-02-03T15:45:27.433Z,16.20
2023-02-03T15:48:23.898Z,23.23
2023-02-03T15:51:00.949Z,18.98
2023-02-03T15:53:46.916Z,19.95
2023-02-03T15:56:41.406Z,16.60
2023-02-03T15:59:23.100Z,14.25
2023-02-03T16:01:52.733Z,23.50
2023-02-03T16:04:21.922Z,22.48
2023-02-03T16:06:51.833Z,21.88
2023-02-03T16:09:31.459Z,14.75
2023-02-03T16:12:16.779Z,18.98
2023-02-03T16:14:45.670Z,18.85
2023-02-03T16:17:24.656Z,17.63
2023-02-03T16:20:19.853Z,18.52
2023-02-03T16:23:19.396Z,21.77
2023-02-03T16:26:14.539Z,17.20
2023-02-03T16:29:01.635Z,20.20
2023-02-03T16:31:48.171Z,16.45
2023-02-03T16:34:37.285Z,19.85
2023-02-03T16:37:51.314Z,17.13
2023-02-03T16:40:42.045Z,18.05
2023-02-03T16:43:32.036Z,22.88
2023-02-03T16:46:19.780Z,24.17
2023-02-03T16:49:06.479Z,16.15
2023-02-03T16:51:41.871Z,22.63
2023-02-03T16:54:14.854Z,19.27
2023-02-03T16:56:42.683Z,17.92
2023-02-03T16:59:11.047Z,14.60
2023-02-03T17:01:40.659Z,12.35
2023-02-03T17:04:10.934Z,17.38
2023-02-03T17:06:40.472Z,15.73
2023-02-03T17:09:08.709Z,28.38
2023-02-03T17:11:36.679Z,13.25
2023-02-03T17:14:04.594Z,16.35
2023-02-03T17:16:33.428Z,20.73
2023-02-03T17:19:01.470Z,19.58
2023-02-03T17:21:30.835Z,18.63
2023-02-03T17:24:00.265Z,21.80
2023-02-03T17:26:28.299Z,27.35
2023-02-03T17:28:56.432Z,17.27
2023-02-03T17:31:24.463Z,21.13
2023-02-03T17:33:52.759Z,26.83
2023-02-03T17:36:24.225Z,24.75
2023-02-03T17:55:33.209Z,17.20
2023-02-03T17:58:01.412Z,19.77
2023-02-03T18:00:29.588Z,19.60
2023-02-03T18:02:57.855Z,20.20
2023-02-03T18:05:25.954Z,15.95
2023-02-03T18:07:53.904Z,16.80
2023-02-03T18:10:21.858Z,26.92
2023-02-03T18:12:49.882Z,20.02
2023-02-03T18:15:17.953Z,21.38
2023-02-03T18:17:46.244Z,21.80
2023-02-03T18:20:14.072Z,21.35
2023-02-03T18:22:43.740Z,15.35
2023-02-03T18:25:12.606Z,21.25
2023-02-03T18:27:40.581Z,11.95
2023-02-03T18:30:11.511Z,24.77
2023-02-03T18:32:39.535Z,25.80
2023-02-03T18:35:13.017Z,20.95
2023-02-03T18:37:40.966Z,21.42
2023-02-03T18:40:09.299Z,20.70
2023-02-03T18:42:37.262Z,21.52
2023-02-03T18:45:06.429Z,19.73
2023-02-03T18:47:35.353Z,15.05
2023-02-03T18:50:04.384Z,24.23
2023-02-03T18:52:32.514Z,20.98
2023-02-03T18:55:00.342Z,21.58
2023-02-03T18:57:28.719Z,19.67
2023-02-03T18:59:56.844Z,27.63
2023-02-03T19:02:25.865Z,28.00
2023-02-03T19:04:54.333Z,26.15
2023-02-03T19:07:22.500Z,17.75
2023-02-03T19:09:50.491Z,20.60
2023-02-03T19:12:18.757Z,27.67
2023-02-03T19:14:46.687Z,17.35
2023-02-03T19:17:14.803Z,16.40
2023-02-03T19:19:42.815Z,17.48
2023-02-03T19:22:12.878Z,23.27
2023-02-03T19:24:40.877Z,20.70
2023-02-03T19:27:08.735Z,13.40
2023-02-03T19:29:38.959Z,27.45
2023-02-03T19:32:12.368Z,19.75
2023-02-03T19:34:40.498Z,17.55
2023-02-03T19:37:09.225Z,19.98
2023-02-03T19:39:37.355Z,16.27
2023-02-03T19:42:05.513Z,21.52
2023-02-03T19:44:34.420Z,26.13
2023-02-03T19:47:03.680Z,26.67
2023-02-03T19:49:31.535Z,18.20
2023-02-03T19:51:59.441Z,19.08
2023-02-03T19:54:27.518Z,15.10
2023-02-03T19:56:55.413Z,21.67
2023-02-03T19:59:23.281Z,17.05
2023-02-03T20:01:51.296Z,20.10
2023-02-03T20:04:19.540Z,11.27
2023-02-03T20:06:47.488Z,17.73
2023-02-03T20:09:15.474Z,21.35
2023-02-03T20:11:43.555Z,26.13
2023-02-03T20:14:12.548Z,21.38
2023-02-03T20:16:40.674Z,20.33
2023-02-03T20:19:09.312Z,18.95
2023-02-03T20:21:37.261Z,19.27
2023-02-03T20:24:05.295Z,22.02
2023-02-03T20:26:33.820Z,20.23
2023-02-03T20:29:01.997Z,23.90
2023-02-03T20:31:30.253Z,20.45
2023-02-03T20:33:58.212Z,21.55
2023-02-03T20:36:26.405Z,22.92
2023-02-03T20:38:54.369Z,26.10
2023-02-03T20:41:22.555Z,20.58
2023-02-03T20:43:50.418Z,13.90
2023-02-03T20:46:19.859Z,20.48
2023-02-03T20:48:48.493Z,21.70
2023-02-03T20:51:18.681Z,18.08
2023-02-03T20:53:47.944Z,19.83
2023-02-03T20:56:18.378Z,17.80
2023-02-03T20:58:46.451Z,18.20
2023-02-03T21:01:17.624Z,12.05
2023-02-03T21:04:04.268Z,24.48
2023-02-03T21:06:33.725Z,17.92
2023-02-03T21:09:11.618Z,16.08
2023-02-03T21:11:39.507Z,16.05
2023-02-03T21:14:40.934Z,12.32
2023-02-03T21:17:17.890Z,15.15
2023-02-03T21:19:46.818Z,16.92
2023-02-03T21:22:21.941Z,15.18
2023-02-03T21:27:31.050Z,29.42
2023-02-03T21:30:01.843Z,23.50
2023-02-03T21:32:40.674Z,21.08
2023-02-03T21:35:37.414Z,14.20
2023-02-03T21:38:32.407Z,12.80
2023-02-03T21:41:01.362Z,15.80
2023-02-03T21:43:30.491Z,18.17
2023-02-03T21:45:58.682Z,15.48
2023-02-03T21:48:32.635Z,22.10
2023-02-03T21:51:22.476Z,20.27
2023-02-03T21:53:57.801Z,25.75
2023-02-03T21:56:39.495Z,17.48
2023-02-03T21:59:22.420Z,22.40
2023-02-03T22:02:00.055Z,21.88
2023-02-03T22:04:29.355Z,16.20
2023-02-03T22:06:59.847Z,22.45
2023-02-03T22:09:30.963Z,20.02
2023-02-03T22:12:01.289Z,22.70
2023-02-03T22:17:18.057Z,30.92
2023-02-03T22:19:47.265Z,22.52
2023-02-03T22:22:16.695Z,21.58
2023-02-03T22:24:44.929Z,25.02
2023-02-03T22:27:12.986Z,27.15
2023-02-03T22:29:42.380Z,18.98
2023-02-03T22:32:19.693Z,23.63
2023-02-03T22:34:47.861Z,29.00
2023-02-03T22:37:16.213Z,24.00
2023-02-03T22:39:44.588Z,16.27
2023-02-03T22:42:12.835Z,21.50
2023-02-03T22:44:40.913Z,20.42
2023-02-03T22:47:08.883Z,16.65
2023-02-03T22:49:37.263Z,19.15
2023-02-03T22:52:05.464Z,24.77
2023-02-03T22:54:33.954Z,21.42
2023-02-03T22:57:02.603Z,19.73
2023-02-03T22:59:30.863Z,22.02
2023-02-03T23:01:59.052Z,22.77
2023-02-03T23:04:27.034Z,21.77
2023-02-03T23:06:57.618Z,19.95
2023-02-03T23:09:28.225Z,20.10
2023-02-03T23:11:56.711Z,26.15
2023-02-03T23:17:07.162Z,23.05
2023-02-03T23:19:35.198Z,16.45
2023-02-03T23:22:03.698Z,26.63
2023-02-03T23:24:31.792Z,20.63
2023-02-03T23:26:59.646Z,24.95
2023-02-03T23:29:27.996Z,25.40
2023-02-03T23:31:59.013Z,27.40
2023-02-03T23:34:46.061Z,30.10
2023-02-03T23:37:14.176Z,19.45
2023-02-03T23:39:42.199Z,22.40
2023-02-03T23:42:10.235Z,26.40
2023-02-03T23:44:38.291Z,21.65
2023-02-03T23:47:06.417Z,19.05
2023-02-03T23:49:34.443Z,21.35
2023-02-03T23:52:02.665Z,20.77
2023-02-03T23:54:30.526Z,17.95
2023-02-03T23:56:58.904Z,27.05
2023-02-03T23:59:26.945Z,29.35
